This is the latest recevied weather packets stored in our database for station/object CT2HRB-13. If no packets are shown the sender has not sent any weather packets the latest 10 day(s).
| Time | Temp. | Humidity | Pressure | Rain* | Wind** | Luminosity | Snow |
|---|---|---|---|---|---|---|---|
| 1777975801 | 17.22° C | 58% | 1017.4 hPa | - | - | - | - |
| 1777975501 | 17.22° C | 60% | 1017.3 hPa | - | - | - | - |
| 1777975202 | 17.78° C | 59% | 1017.3 hPa | - | - | - | - |
| 1777974902 | 17.22° C | 62% | 1017.4 hPa | - | - | - | - |
| 1777974601 | 16.67° C | 63% | 1017.3 hPa | - | - | - | - |
| 1777974302 | 16.67° C | 66% | 1017.3 hPa | - | - | - | - |
| 1777974002 | 16.67° C | 69% | 1017.4 hPa | - | - | - | - |
| 1777973701 | 16.11° C | 72% | 1017.3 hPa | - | - | - | - |
| 1777973402 | 15.56° C | 72% | 1017.4 hPa | - | - | - | - |
| 1777973102 | 15° C | 73% | 1017.4 hPa | - | - | - | - |
| 1777972801 | 14.44° C | 73% | 1017.4 hPa | - | - | - | - |
| 1777972502 | 14.44° C | 73% | 1017.5 hPa | - | - | - | - |
| 1777972201 | 14.44° C | 71% | 1017.5 hPa | - | - | - | - |
| 1777971901 | 15.56° C | 68% | 1017.5 hPa | - | - | - | - |
| 1777971602 | 16.11° C | 64% | 1017.3 hPa | - | - | - | - |
| 1777971302 | 16.67° C | 63% | 1017.3 hPa | - | - | - | - |
| 1777971002 | 16.67° C | 62% | 1017.4 hPa | - | - | - | - |
| 1777970702 | 17.22° C | 64% | 1017.1 hPa | - | - | - | - |
| 1777970401 | 17.22° C | 64% | 1017.2 hPa | - | - | - | - |
| 1777970101 | 16.67° C | 67% | 1017.4 hPa | - | - | - | - |
| 1777969802 | 16.11° C | 69% | 1017.3 hPa | - | - | - | - |
| 1777969501 | 15.56° C | 71% | 1017.2 hPa | - | - | - | - |
| 1777969201 | 15° C | 72% | 1017.5 hPa | - | - | - | - |
| 1777968901 | 15° C | 71% | 1017.4 hPa | - | - | - | - |
| 1777968602 | 15° C | 71% | 1017.2 hPa | - | - | - | - |
* Rain since midnight (hover to see other rain measurements)
** Current wind speed in m/s (hover to see current wind gust speed)